createdAt,value
2023-04-21T00:00:16.632Z,436.00
2023-04-21T00:01:11.887Z,433.00
2023-04-21T00:02:07.037Z,430.00
2023-04-21T00:03:02.107Z,430.00
2023-04-21T00:03:57.142Z,428.00
2023-04-21T00:04:52.193Z,427.00
2023-04-21T00:05:47.402Z,427.00
2023-04-21T00:06:42.302Z,431.00
2023-04-21T00:07:37.186Z,432.00
2023-04-21T00:08:32.258Z,426.00
2023-04-21T00:09:27.443Z,426.00
2023-04-21T00:10:22.387Z,431.00
2023-04-21T00:11:17.508Z,432.00
2023-04-21T00:12:12.621Z,432.00
2023-04-21T00:13:07.733Z,425.00
2023-04-21T00:14:02.795Z,429.00
2023-04-21T00:14:57.921Z,425.00
2023-04-21T00:15:52.987Z,429.00
2023-04-21T00:16:48.130Z,431.00
2023-04-21T00:17:43.110Z,427.00
2023-04-21T00:18:38.343Z,430.00
2023-04-21T00:19:33.424Z,427.00
2023-04-21T00:20:28.680Z,431.00
2023-04-21T00:21:23.795Z,430.00
2023-04-21T00:22:18.977Z,428.00
2023-04-21T00:23:13.912Z,434.00
2023-04-21T00:24:09.081Z,429.00
2023-04-21T00:25:04.179Z,434.00
2023-04-21T00:25:59.266Z,430.00
2023-04-21T00:26:54.407Z,433.00
2023-04-21T00:27:49.261Z,433.00
2023-04-21T00:28:44.349Z,437.00
2023-04-21T00:29:39.458Z,443.00
2023-04-21T00:30:34.483Z,431.00
2023-04-21T00:31:29.811Z,428.00
2023-04-21T00:32:24.627Z,437.00
2023-04-21T00:33:19.862Z,432.00
2023-04-21T00:34:15.090Z,438.00
2023-04-21T00:35:10.183Z,434.00
2023-04-21T00:36:05.358Z,436.00
2023-04-21T00:37:00.320Z,434.00
2023-04-21T00:37:55.559Z,437.00
2023-04-21T00:38:50.515Z,437.00
2023-04-21T00:39:45.614Z,435.00
2023-04-21T00:40:40.747Z,432.00
2023-04-21T00:41:36.130Z,431.00
2023-04-21T00:42:31.114Z,429.00
2023-04-21T00:43:26.331Z,430.00
2023-04-21T00:44:21.437Z,427.00
2023-04-21T00:45:16.552Z,429.00
2023-04-21T00:46:11.852Z,429.00
2023-04-21T00:47:06.780Z,429.00
2023-04-21T00:48:01.881Z,426.00
2023-04-21T00:48:56.863Z,416.00
2023-04-21T00:49:52.017Z,431.00
2023-04-21T00:50:46.951Z,428.00
2023-04-21T00:51:42.049Z,433.00
2023-04-21T00:52:37.060Z,434.00
2023-04-21T00:53:32.027Z,425.00
2023-04-21T00:54:27.161Z,435.00
2023-04-21T00:55:22.229Z,436.00
2023-04-21T00:57:42.963Z,441.00
2023-04-21T00:58:38.855Z,438.00
2023-04-21T00:59:33.994Z,432.00
2023-04-21T01:00:28.454Z,437.00
2023-04-21T01:01:23.874Z,435.00
2023-04-21T01:02:18.895Z,439.00
2023-04-21T01:03:14.162Z,439.00
2023-04-21T01:04:09.380Z,437.00
2023-04-21T01:05:04.376Z,441.00
2023-04-21T01:05:59.633Z,441.00
2023-04-21T01:06:54.821Z,441.00
2023-04-21T01:07:50.183Z,438.00
2023-04-21T01:08:45.268Z,437.00
2023-04-21T01:09:40.494Z,436.00
2023-04-21T01:10:35.712Z,436.00
2023-04-21T01:11:31.111Z,429.00
2023-04-21T01:12:26.181Z,436.00
2023-04-21T01:13:21.425Z,436.00
2023-04-21T01:14:16.630Z,431.00
2023-04-21T01:15:11.835Z,432.00
2023-04-21T01:16:07.097Z,445.00
2023-04-21T01:17:02.384Z,434.00
2023-04-21T01:17:57.608Z,434.00
2023-04-21T01:18:52.691Z,438.00
2023-04-21T01:19:47.903Z,440.00
2023-04-21T01:20:43.192Z,441.00
2023-04-21T01:21:38.257Z,443.00
2023-04-21T01:22:33.483Z,445.00
2023-04-21T01:23:28.685Z,442.00
2023-04-21T01:24:23.910Z,446.00
2023-04-21T01:25:19.110Z,449.00
2023-04-21T01:26:14.491Z,449.00
2023-04-21T01:27:09.578Z,441.00
2023-04-21T01:28:04.937Z,442.00
2023-04-21T01:29:00.032Z,447.00
2023-04-21T01:29:55.265Z,444.00
2023-04-21T01:30:50.655Z,447.00
2023-04-21T01:31:45.771Z,441.00
2023-04-21T01:32:40.958Z,446.00
2023-04-21T01:33:36.194Z,441.00
2023-04-21T01:34:31.376Z,441.00
2023-04-21T01:35:26.594Z,441.00
2023-04-21T01:36:21.968Z,432.00
2023-04-21T01:37:17.051Z,428.00
2023-04-21T01:38:12.371Z,438.00
2023-04-21T01:39:07.488Z,440.00
2023-04-21T01:40:02.726Z,441.00
2023-04-21T01:40:57.990Z,442.00
2023-04-21T01:41:53.195Z,438.00
2023-04-21T01:42:48.429Z,441.00
2023-04-21T01:43:43.637Z,440.00
2023-04-21T01:44:38.854Z,444.00
2023-04-21T01:45:34.103Z,445.00
2023-04-21T01:46:29.416Z,440.00
2023-04-21T01:47:24.479Z,440.00
2023-04-21T01:48:19.833Z,445.00
2023-04-21T01:49:14.919Z,438.00
2023-04-21T01:50:10.158Z,438.00
2023-04-21T01:51:05.410Z,443.00
2023-04-21T01:52:00.669Z,437.00
2023-04-21T01:52:55.862Z,437.00
2023-04-21T01:53:51.101Z,443.00
2023-04-21T01:54:46.422Z,438.00
2023-04-21T01:55:41.532Z,438.00
2023-04-21T01:56:36.938Z,438.00
2023-04-21T01:57:32.006Z,439.00
2023-04-21T01:58:27.328Z,441.00
2023-04-21T01:59:22.470Z,441.00
2023-04-21T02:00:17.672Z,437.00
2023-04-21T02:01:12.944Z,445.00
2023-04-21T02:02:08.293Z,438.00
2023-04-21T02:03:03.470Z,437.00
2023-04-21T02:03:58.734Z,439.00
2023-04-21T02:04:53.743Z,431.00
2023-04-21T02:05:48.915Z,434.00
2023-04-21T02:06:44.213Z,432.00
2023-04-21T02:07:39.304Z,433.00
2023-04-21T02:08:34.657Z,435.00
2023-04-21T02:09:29.740Z,440.00
2023-04-21T02:10:24.969Z,431.00
2023-04-21T02:11:20.192Z,430.00
2023-04-21T02:12:15.595Z,436.00
2023-04-21T02:13:10.531Z,430.00
2023-04-21T02:14:05.781Z,434.00
2023-04-21T02:15:00.974Z,435.00
2023-04-21T02:16:09.647Z,436.00
2023-04-21T02:16:52.481Z,433.00
2023-04-21T02:17:46.730Z,424.00
2023-04-21T02:18:41.792Z,435.00
2023-04-21T02:19:36.934Z,435.00
2023-04-21T02:20:32.129Z,432.00
2023-04-21T02:21:27.378Z,425.00
2023-04-21T02:22:22.607Z,433.00
2023-04-21T02:23:17.821Z,428.00
2023-04-21T02:24:13.047Z,425.00
2023-04-21T02:25:08.250Z,427.00
2023-04-21T02:26:03.459Z,421.00
2023-04-21T02:26:58.861Z,423.00
2023-04-21T02:27:53.913Z,427.00
2023-04-21T02:28:49.292Z,427.00
2023-04-21T02:29:44.376Z,424.00
2023-04-21T02:30:41.461Z,424.00
2023-04-21T02:31:43.146Z,425.00
2023-04-21T02:32:31.192Z,425.00
2023-04-21T02:33:25.296Z,424.00
2023-04-21T02:34:20.435Z,421.00
2023-04-21T02:35:15.646Z,420.00
2023-04-21T02:36:10.969Z,425.00
2023-04-21T02:37:06.033Z,424.00
2023-04-21T02:38:01.392Z,427.00
2023-04-21T02:38:56.486Z,429.00
2023-04-21T02:39:51.698Z,428.00
2023-04-21T02:40:46.914Z,426.00
2023-04-21T02:41:42.304Z,423.00
2023-04-21T02:42:37.369Z,423.00
2023-04-21T02:43:32.619Z,426.00
2023-04-21T02:44:27.834Z,427.00
2023-04-21T02:45:23.054Z,426.00
2023-04-21T02:46:18.310Z,418.00
2023-04-21T02:47:13.538Z,422.00
2023-04-21T02:48:08.874Z,417.00
2023-04-21T02:49:03.981Z,424.00
2023-04-21T02:49:59.180Z,420.00
2023-04-21T02:50:54.441Z,424.00
2023-04-21T02:51:49.813Z,418.00
2023-04-21T02:52:44.918Z,420.00
2023-04-21T02:53:40.138Z,420.00
2023-04-21T02:54:35.371Z,418.00
2023-04-21T02:55:30.595Z,414.00
2023-04-21T02:56:25.998Z,421.00
2023-04-21T02:57:21.065Z,426.00
2023-04-21T02:58:16.422Z,426.00
2023-04-21T02:59:11.513Z,422.00
2023-04-21T03:00:06.759Z,420.00
2023-04-21T03:01:02.008Z,419.00
2023-04-21T03:01:57.378Z,414.00
2023-04-21T03:02:52.638Z,422.00
2023-04-21T03:03:47.705Z,420.00
2023-04-21T03:04:42.967Z,421.00
2023-04-21T03:05:38.138Z,422.00
2023-04-21T03:06:33.527Z,422.00
2023-04-21T03:07:28.622Z,428.00
2023-04-21T03:08:23.930Z,421.00
2023-04-21T03:09:19.306Z,418.00
2023-04-21T03:10:14.300Z,418.00
2023-04-21T03:11:09.554Z,417.00
2023-04-21T03:12:04.784Z,416.00
2023-04-21T03:12:59.978Z,419.00
2023-04-21T03:13:55.250Z,421.00
2023-04-21T03:14:50.455Z,419.00
2023-04-21T03:15:45.686Z,419.00
2023-04-21T03:16:41.146Z,427.00
2023-04-21T03:17:36.134Z,423.00
2023-04-21T03:18:31.428Z,426.00
2023-04-21T03:19:26.551Z,420.00
2023-04-21T03:20:21.768Z,425.00
2023-04-21T03:21:17.033Z,428.00
2023-04-21T03:22:12.253Z,427.00
2023-04-21T03:23:07.478Z,432.00
2023-04-21T03:24:02.732Z,430.00
2023-04-21T03:24:57.935Z,430.00
2023-04-21T03:25:53.155Z,434.00
2023-04-21T03:26:48.499Z,436.00
2023-04-21T03:27:43.640Z,431.00
2023-04-21T03:28:39.004Z,432.00
2023-04-21T03:29:34.159Z,427.00
2023-04-21T03:30:29.468Z,432.00
2023-04-21T03:31:24.807Z,426.00
2023-04-21T03:32:20.051Z,429.00
2023-04-21T03:33:15.054Z,428.00
2023-04-21T03:34:10.313Z,430.00
2023-04-21T03:35:05.524Z,422.00
2023-04-21T03:36:00.889Z,421.00
2023-04-21T03:36:56.145Z,427.00
2023-04-21T03:37:51.231Z,431.00
2023-04-21T03:38:46.701Z,432.00
2023-04-21T03:39:41.679Z,424.00
2023-04-21T03:40:36.863Z,416.00
2023-04-21T03:41:32.280Z,423.00
2023-04-21T03:42:27.350Z,419.00
2023-04-21T03:43:22.562Z,422.00
2023-04-21T03:44:17.778Z,421.00
2023-04-21T03:45:13.040Z,420.00
2023-04-21T03:46:08.366Z,427.00
2023-04-21T03:47:04.580Z,435.00
2023-04-21T03:47:59.865Z,426.00
2023-04-21T03:48:55.035Z,426.00
2023-04-21T03:49:50.279Z,432.00
2023-04-21T03:50:45.508Z,428.00
2023-04-21T03:51:40.647Z,431.00
2023-04-21T03:52:35.810Z,426.00
2023-04-21T03:53:30.752Z,426.00
2023-04-21T03:54:25.888Z,434.00
2023-04-21T03:55:20.949Z,433.00
2023-04-21T03:56:16.083Z,426.00
2023-04-21T03:57:11.177Z,431.00
2023-04-21T03:58:06.177Z,424.00
2023-04-21T03:59:01.147Z,424.00
2023-04-21T03:59:56.273Z,429.00
2023-04-21T04:00:51.678Z,430.00
2023-04-21T04:01:46.905Z,432.00
2023-04-21T04:02:42.020Z,428.00
2023-04-21T04:03:37.128Z,433.00
2023-04-21T04:04:32.515Z,429.00
2023-04-21T04:05:27.176Z,427.00
2023-04-21T04:06:22.201Z,424.00
2023-04-21T04:07:17.250Z,428.00
2023-04-21T04:08:12.257Z,423.00
2023-04-21T04:09:07.392Z,427.00
2023-04-21T04:10:02.397Z,427.00
2023-04-21T04:10:57.543Z,426.00
2023-04-21T04:11:52.640Z,427.00
2023-04-21T04:12:47.832Z,425.00
2023-04-21T04:13:42.870Z,427.00
2023-04-21T04:14:38.004Z,422.00
2023-04-21T04:15:32.973Z,421.00
2023-04-21T04:16:28.084Z,425.00
2023-04-21T04:17:27.396Z,423.00
2023-04-21T04:18:22.181Z,424.00
2023-04-21T04:19:17.440Z,422.00
2023-04-21T04:20:12.307Z,419.00
2023-04-21T04:21:08.274Z,432.00
2023-04-21T04:22:03.580Z,424.00
2023-04-21T04:22:58.966Z,425.00
2023-04-21T04:23:54.317Z,426.00
2023-04-21T04:24:50.081Z,427.00
2023-04-21T04:25:45.448Z,425.00
2023-04-21T04:26:40.779Z,425.00
2023-04-21T04:27:36.318Z,419.00
2023-04-21T04:28:31.349Z,425.00
2023-04-21T04:29:26.686Z,425.00
2023-04-21T04:30:21.973Z,426.00
2023-04-21T04:31:17.431Z,426.00
2023-04-21T04:32:12.841Z,433.00
2023-04-21T04:33:08.175Z,429.00
2023-04-21T04:34:03.411Z,434.00
2023-04-21T04:34:58.876Z,432.00
2023-04-21T04:35:54.228Z,434.00
2023-04-21T04:36:49.632Z,431.00
2023-04-21T04:37:45.094Z,431.00
2023-04-21T04:38:40.225Z,447.00
2023-04-21T04:39:35.642Z,443.00
2023-04-21T04:40:31.081Z,434.00
2023-04-21T04:41:26.339Z,438.00
2023-04-21T04:42:21.808Z,440.00
2023-04-21T04:43:17.080Z,444.00
2023-04-21T04:44:12.114Z,446.00
2023-04-21T04:45:07.168Z,456.00
2023-04-21T04:46:02.277Z,450.00
2023-04-21T04:46:57.481Z,451.00
2023-04-21T04:47:52.419Z,458.00
2023-04-21T04:48:47.380Z,452.00
2023-04-21T04:49:42.404Z,444.00
2023-04-21T04:50:37.436Z,441.00
2023-04-21T04:51:38.488Z,445.00
2023-04-21T04:52:34.185Z,442.00
2023-04-21T04:53:29.369Z,441.00
2023-04-21T04:54:25.075Z,436.00
2023-04-21T04:55:20.539Z,432.00
2023-04-21T04:56:15.785Z,432.00
2023-04-21T04:57:12.336Z,428.00
2023-04-21T04:58:07.594Z,428.00
2023-04-21T04:59:03.442Z,427.00
2023-04-21T04:59:58.774Z,428.00
2023-04-21T05:00:54.200Z,429.00
2023-04-21T05:01:49.944Z,429.00
2023-04-21T05:02:45.502Z,431.00
2023-04-21T05:03:41.277Z,426.00
2023-04-21T05:04:36.662Z,435.00
2023-04-21T05:05:31.961Z,430.00
2023-04-21T05:06:27.820Z,434.00
2023-04-21T05:07:23.404Z,447.00
2023-04-21T05:08:18.811Z,431.00
2023-04-21T05:09:14.980Z,426.00
2023-04-21T05:10:10.389Z,431.00
2023-04-21T05:11:06.255Z,422.00
2023-04-21T05:12:02.001Z,430.00
2023-04-21T05:12:57.330Z,433.00
2023-04-21T05:13:53.169Z,430.00
2023-04-21T05:14:48.479Z,431.00
2023-04-21T05:15:44.429Z,430.00
2023-04-21T05:16:39.665Z,429.00
2023-04-21T05:17:35.238Z,437.00
2023-04-21T05:18:30.725Z,449.00
2023-04-21T05:19:26.219Z,454.00
2023-04-21T05:20:21.684Z,454.00
2023-04-21T05:21:17.888Z,442.00
2023-04-21T05:22:13.263Z,438.00
2023-04-21T05:23:09.212Z,433.00
2023-04-21T05:24:04.521Z,434.00
2023-04-21T05:25:00.011Z,433.00
2023-04-21T05:25:55.781Z,437.00
2023-04-21T05:26:51.303Z,457.00
2023-04-21T05:27:47.205Z,451.00
2023-04-21T05:28:42.459Z,444.00
2023-04-21T05:29:37.787Z,439.00
2023-04-21T05:30:33.590Z,449.00
2023-04-21T05:31:28.938Z,443.00
2023-04-21T05:32:24.663Z,429.00
2023-04-21T05:33:20.727Z,434.00
2023-04-21T05:34:16.207Z,443.00
2023-04-21T05:35:12.076Z,444.00
2023-04-21T05:36:07.564Z,441.00
2023-04-21T05:37:02.923Z,430.00
2023-04-21T05:37:58.737Z,494.00
2023-04-21T05:38:54.119Z,441.00
2023-04-21T05:39:50.040Z,441.00
2023-04-21T05:40:45.234Z,441.00
2023-04-21T05:41:40.786Z,440.00
2023-04-21T05:42:36.483Z,448.00
2023-04-21T05:43:31.829Z,437.00
2023-04-21T05:44:27.293Z,445.00
2023-04-21T05:45:23.509Z,451.00
2023-04-21T05:46:18.923Z,450.00
2023-04-21T05:47:14.707Z,440.00
2023-04-21T05:48:12.937Z,447.00
2023-04-21T05:49:05.502Z,457.00
2023-04-21T05:50:00.464Z,451.00
2023-04-21T05:50:55.540Z,451.00
2023-04-21T05:51:50.527Z,469.00
2023-04-21T05:52:45.611Z,481.00
2023-04-21T05:53:40.779Z,475.00
2023-04-21T05:54:35.712Z,476.00
2023-04-21T05:55:30.681Z,459.00
2023-04-21T05:56:25.721Z,446.00
2023-04-21T05:57:20.730Z,442.00
2023-04-21T05:58:15.833Z,448.00
2023-04-21T05:59:10.920Z,449.00
2023-04-21T06:00:05.982Z,454.00
2023-04-21T06:01:04.884Z,458.00
2023-04-21T06:02:00.068Z,455.00
2023-04-21T06:02:55.190Z,452.00
2023-04-21T06:03:50.734Z,446.00
2023-04-21T06:04:45.361Z,445.00
2023-04-21T06:05:40.316Z,444.00
2023-04-21T06:06:35.285Z,448.00
2023-04-21T06:07:30.317Z,446.00
2023-04-21T06:08:25.336Z,454.00
2023-04-21T06:09:20.548Z,452.00
2023-04-21T06:10:15.829Z,452.00
2023-04-21T06:11:11.304Z,459.00
2023-04-21T06:12:07.245Z,449.00
2023-04-21T06:13:02.795Z,452.00
2023-04-21T06:13:58.456Z,450.00
2023-04-21T06:14:54.019Z,455.00
2023-04-21T06:15:49.439Z,454.00
2023-04-21T06:16:44.944Z,451.00
2023-04-21T06:17:40.329Z,456.00
2023-04-21T06:18:35.347Z,450.00
2023-04-21T06:19:30.558Z,448.00
2023-04-21T06:20:25.470Z,467.00
2023-04-21T06:21:20.485Z,462.00
2023-04-21T06:22:15.520Z,452.00
2023-04-21T06:23:10.486Z,450.00
2023-04-21T06:24:05.522Z,449.00
2023-04-21T06:25:00.770Z,451.00
2023-04-21T06:25:55.517Z,462.00
2023-04-21T06:26:50.483Z,453.00
2023-04-21T06:27:45.524Z,450.00
2023-04-21T06:28:40.480Z,446.00
2023-04-21T06:29:35.817Z,446.00
2023-04-21T06:30:30.831Z,449.00
2023-04-21T06:31:25.992Z,447.00
2023-04-21T06:32:21.013Z,451.00
2023-04-21T06:33:16.259Z,453.00
2023-04-21T06:34:11.609Z,447.00
2023-04-21T06:35:07.069Z,444.00
2023-04-21T06:36:03.005Z,439.00
2023-04-21T06:36:58.545Z,431.00
2023-04-21T06:37:54.225Z,431.00
2023-04-21T06:38:49.771Z,433.00
2023-04-21T06:39:45.318Z,437.00
2023-04-21T06:40:41.218Z,440.00
2023-04-21T06:41:36.587Z,433.00
2023-04-21T06:42:32.180Z,430.00
2023-04-21T06:43:28.310Z,434.00
2023-04-21T06:44:23.747Z,437.00
2023-04-21T06:45:19.542Z,447.00
2023-04-21T06:46:14.989Z,448.00
2023-04-21T06:47:10.420Z,441.00
2023-04-21T06:48:06.147Z,431.00
2023-04-21T06:49:01.613Z,426.00
2023-04-21T06:49:57.702Z,433.00
2023-04-21T06:50:52.861Z,429.00
2023-04-21T06:51:48.266Z,432.00
2023-04-21T06:52:43.967Z,436.00
2023-04-21T06:53:39.496Z,439.00
2023-04-21T06:54:35.015Z,440.00
2023-04-21T06:55:31.155Z,439.00
2023-04-21T06:57:51.132Z,435.00
2023-04-21T06:58:46.476Z,437.00
2023-04-21T06:59:42.031Z,462.00
2023-04-21T07:00:37.272Z,448.00
2023-04-21T07:01:32.864Z,437.00
2023-04-21T07:02:28.497Z,434.00
2023-04-21T07:03:23.841Z,431.00
2023-04-21T07:04:19.157Z,438.00
2023-04-21T07:05:14.536Z,440.00
2023-04-21T07:06:09.911Z,436.00
2023-04-21T07:07:05.616Z,438.00
2023-04-21T07:08:00.963Z,435.00
2023-04-21T07:08:56.380Z,431.00
2023-04-21T07:09:51.954Z,436.00
2023-04-21T07:10:47.222Z,431.00
2023-04-21T07:11:42.599Z,426.00
2023-04-21T07:12:38.122Z,430.00
2023-04-21T07:13:33.618Z,427.00
2023-04-21T07:14:29.191Z,430.00
2023-04-21T07:15:24.513Z,433.00
2023-04-21T07:16:20.223Z,434.00
2023-04-21T07:17:15.599Z,433.00
2023-04-21T07:18:11.155Z,427.00
2023-04-21T07:19:06.661Z,423.00
2023-04-21T07:20:02.090Z,428.00
2023-04-21T07:20:57.412Z,420.00
2023-04-21T07:21:53.122Z,423.00
2023-04-21T07:22:48.399Z,425.00
2023-04-21T07:23:43.791Z,422.00
2023-04-21T07:24:39.220Z,423.00
2023-04-21T07:25:34.566Z,427.00
2023-04-21T07:26:30.242Z,427.00
2023-04-21T07:27:25.616Z,432.00
2023-04-21T07:28:21.157Z,426.00
2023-04-21T07:29:16.734Z,428.00
2023-04-21T07:30:12.124Z,427.00
2023-04-21T07:31:07.523Z,426.00
2023-04-21T07:32:02.916Z,421.00
2023-04-21T07:32:58.333Z,425.00
2023-04-21T07:33:53.893Z,420.00
2023-04-21T07:34:49.084Z,426.00
2023-04-21T07:35:44.506Z,422.00
2023-04-21T07:36:39.884Z,422.00
2023-04-21T07:37:35.576Z,421.00
2023-04-21T07:38:30.946Z,429.00
2023-04-21T07:39:26.484Z,421.00
2023-04-21T07:40:22.007Z,424.00
2023-04-21T07:41:17.440Z,424.00
2023-04-21T07:42:12.906Z,419.00
2023-04-21T07:43:08.447Z,426.00
2023-04-21T07:44:03.866Z,426.00
2023-04-21T07:44:59.574Z,425.00
2023-04-21T07:45:54.993Z,421.00
2023-04-21T07:46:50.422Z,422.00
2023-04-21T07:47:45.837Z,425.00
2023-04-21T07:48:41.342Z,425.00
2023-04-21T07:49:36.622Z,423.00
2023-04-21T07:50:32.011Z,425.00
2023-04-21T07:51:27.418Z,419.00
2023-04-21T07:52:22.941Z,422.00
2023-04-21T07:53:18.434Z,427.00
2023-04-21T07:54:13.858Z,421.00
2023-04-21T07:55:09.282Z,430.00
2023-04-21T07:56:05.360Z,428.00
2023-04-21T07:57:00.718Z,422.00
2023-04-21T07:57:56.255Z,422.00
2023-04-21T07:58:51.614Z,422.00
2023-04-21T07:59:47.217Z,423.00
2023-04-21T08:00:42.045Z,420.00
2023-04-21T08:01:37.126Z,419.00
2023-04-21T08:02:32.236Z,432.00
2023-04-21T08:03:27.495Z,420.00
2023-04-21T08:04:22.501Z,421.00
2023-04-21T08:05:17.484Z,423.00
2023-04-21T08:07:38.150Z,415.00
2023-04-21T08:08:33.457Z,420.00
2023-04-21T08:09:30.642Z,422.00
2023-04-21T08:10:24.603Z,418.00
2023-04-21T08:11:19.974Z,427.00
2023-04-21T08:12:15.526Z,423.00
2023-04-21T08:13:10.991Z,425.00
2023-04-21T08:14:06.715Z,426.00
2023-04-21T08:15:02.036Z,424.00
2023-04-21T08:15:57.568Z,424.00
2023-04-21T08:16:54.648Z,423.00
2023-04-21T08:17:48.699Z,423.00
2023-04-21T08:18:44.104Z,419.00
2023-04-21T08:19:39.841Z,428.00
2023-04-21T08:20:35.237Z,424.00
2023-04-21T08:21:31.456Z,417.00
2023-04-21T08:22:26.142Z,421.00
2023-04-21T08:23:21.621Z,422.00
2023-04-21T08:24:17.107Z,418.00
2023-04-21T08:25:12.487Z,422.00
2023-04-21T08:26:08.019Z,418.00
2023-04-21T08:27:03.361Z,417.00
2023-04-21T08:27:58.857Z,419.00
2023-04-21T08:28:54.418Z,418.00
2023-04-21T08:29:49.753Z,415.00
2023-04-21T08:30:45.293Z,420.00
2023-04-21T08:31:40.640Z,420.00
2023-04-21T08:32:36.061Z,418.00
2023-04-21T08:33:31.469Z,415.00
2023-04-21T08:34:27.905Z,419.00
2023-04-21T08:35:22.415Z,417.00
2023-04-21T08:36:28.511Z,417.00
2023-04-21T08:37:14.454Z,424.00
2023-04-21T08:38:09.000Z,420.00
2023-04-21T08:39:04.397Z,413.00
2023-04-21T08:40:00.012Z,414.00
2023-04-21T08:40:55.299Z,418.00
2023-04-21T08:41:50.773Z,415.00
2023-04-21T08:42:46.348Z,417.00
2023-04-21T08:43:41.658Z,417.00
2023-04-21T08:44:37.132Z,417.00
2023-04-21T08:45:32.894Z,426.00
2023-04-21T08:46:28.455Z,426.00
2023-04-21T08:47:23.809Z,422.00
2023-04-21T08:48:19.207Z,417.00
2023-04-21T08:49:14.794Z,414.00
2023-04-21T08:50:10.379Z,419.00
2023-04-21T08:51:05.864Z,417.00
2023-04-21T08:52:01.299Z,414.00
2023-04-21T08:52:56.821Z,414.00
2023-04-21T08:53:52.341Z,428.00
2023-04-21T08:54:47.882Z,420.00
2023-04-21T08:55:43.227Z,417.00
2023-04-21T08:56:38.709Z,413.00
2023-04-21T08:57:34.212Z,421.00
2023-04-21T08:58:29.572Z,416.00
2023-04-21T08:59:24.887Z,415.00
2023-04-21T09:00:20.587Z,415.00
2023-04-21T09:01:15.791Z,417.00
2023-04-21T09:02:11.364Z,410.00
2023-04-21T09:03:13.216Z,414.00
2023-04-21T09:04:03.499Z,411.00
2023-04-21T09:04:58.206Z,412.00
2023-04-21T09:05:53.576Z,414.00
2023-04-21T09:06:49.015Z,418.00
2023-04-21T09:07:44.533Z,414.00
2023-04-21T09:08:40.126Z,417.00
2023-04-21T09:09:35.490Z,414.00
2023-04-21T09:10:30.981Z,414.00
2023-04-21T09:11:26.484Z,415.00
2023-04-21T09:12:21.963Z,417.00
2023-04-21T09:13:17.338Z,419.00
2023-04-21T09:14:12.821Z,418.00
2023-04-21T09:15:08.335Z,421.00
2023-04-21T09:16:05.164Z,429.00
2023-04-21T09:16:59.175Z,415.00
2023-04-21T09:17:54.549Z,424.00
2023-04-21T09:18:50.004Z,425.00
2023-04-21T09:19:45.541Z,438.00
2023-04-21T09:20:41.075Z,430.00
2023-04-21T09:21:36.654Z,432.00
2023-04-21T09:22:32.143Z,453.00
2023-04-21T09:23:27.514Z,457.00
2023-04-21T09:24:23.012Z,451.00
2023-04-21T09:25:18.589Z,434.00
2023-04-21T09:26:13.940Z,415.00
2023-04-21T09:27:09.397Z,421.00
2023-04-21T09:28:05.164Z,426.00
2023-04-21T09:29:00.650Z,432.00
2023-04-21T09:29:56.141Z,421.00
2023-04-21T09:30:51.841Z,416.00
2023-04-21T09:31:46.936Z,424.00
2023-04-21T09:32:42.401Z,415.00
2023-04-21T09:33:46.107Z,419.00
2023-04-21T09:34:34.210Z,420.00
2023-04-21T09:35:28.818Z,422.00
2023-04-21T09:36:24.167Z,432.00
2023-04-21T09:37:19.689Z,434.00
2023-04-21T09:38:15.320Z,432.00
2023-04-21T09:40:06.103Z,425.00
2023-04-21T09:41:01.636Z,426.00
2023-04-21T09:41:57.136Z,418.00
2023-04-21T09:42:52.603Z,418.00
2023-04-21T09:43:47.967Z,417.00
2023-04-21T09:44:50.900Z,427.00
2023-04-21T09:45:40.843Z,427.00
2023-04-21T09:46:34.252Z,424.00
2023-04-21T09:47:29.782Z,422.00
2023-04-21T09:48:25.390Z,417.00
2023-04-21T09:49:20.859Z,422.00
2023-04-21T09:50:17.007Z,420.00
2023-04-21T09:51:30.791Z,419.00
2023-04-21T09:52:18.670Z,418.00
2023-04-21T09:53:03.826Z,416.00
2023-04-21T09:53:58.359Z,422.00
2023-04-21T09:54:53.744Z,421.00
2023-04-21T09:55:49.221Z,427.00
2023-04-21T09:56:44.681Z,439.00
2023-04-21T09:57:40.060Z,459.00
2023-04-21T09:58:35.284Z,436.00
2023-04-21T09:59:30.792Z,424.00
2023-04-21T10:00:26.263Z,432.00
2023-04-21T10:01:21.854Z,433.00
2023-04-21T10:02:17.455Z,426.00
2023-04-21T10:03:12.927Z,428.00
2023-04-21T10:04:08.329Z,431.00
2023-04-21T10:05:04.036Z,423.00
2023-04-21T10:05:59.437Z,428.00
2023-04-21T10:06:54.881Z,424.00
2023-04-21T10:07:50.263Z,421.00
2023-04-21T10:08:45.590Z,428.00
2023-04-21T10:09:40.987Z,425.00
2023-04-21T10:10:36.570Z,417.00
2023-04-21T10:11:32.121Z,421.00
2023-04-21T10:12:27.427Z,424.00
2023-04-21T10:13:22.886Z,430.00
2023-04-21T10:14:18.652Z,432.00
2023-04-21T10:15:13.671Z,423.00
2023-04-21T10:16:09.172Z,420.00
2023-04-21T10:17:04.720Z,422.00
2023-04-21T10:18:00.067Z,424.00
2023-04-21T10:18:55.290Z,427.00
2023-04-21T10:19:50.760Z,422.00
2023-04-21T10:20:46.315Z,427.00
2023-04-21T10:21:41.672Z,421.00
2023-04-21T10:22:37.153Z,421.00
2023-04-21T10:23:32.658Z,423.00
2023-04-21T10:24:28.110Z,427.00
2023-04-21T10:25:23.566Z,418.00
2023-04-21T10:26:18.980Z,423.00
2023-04-21T10:27:14.514Z,430.00
2023-04-21T10:28:09.912Z,441.00
2023-04-21T10:29:05.273Z,426.00
2023-04-21T10:30:00.731Z,433.00
2023-04-21T10:30:56.200Z,440.00
2023-04-21T10:31:51.715Z,443.00
2023-04-21T10:32:47.282Z,439.00
2023-04-21T10:33:42.625Z,444.00
2023-04-21T10:34:38.148Z,444.00
2023-04-21T10:35:33.496Z,451.00
2023-04-21T10:36:28.960Z,450.00
2023-04-21T10:37:24.400Z,451.00
2023-04-21T10:38:19.826Z,444.00
2023-04-21T10:39:15.134Z,449.00
2023-04-21T10:40:10.564Z,443.00
2023-04-21T10:41:06.005Z,442.00
2023-04-21T10:42:01.509Z,442.00
2023-04-21T10:42:56.954Z,448.00
2023-04-21T10:43:52.528Z,446.00
2023-04-21T10:44:48.043Z,451.00
2023-04-21T10:45:43.446Z,445.00
2023-04-21T10:46:38.972Z,451.00
2023-04-21T10:47:34.639Z,451.00
2023-04-21T10:48:29.913Z,444.00
2023-04-21T10:49:25.368Z,443.00
2023-04-21T10:50:20.795Z,446.00
2023-04-21T10:51:16.196Z,462.00
2023-04-21T10:52:11.545Z,466.00
2023-04-21T10:53:06.978Z,469.00
2023-04-21T10:54:02.443Z,469.00
2023-04-21T10:54:57.914Z,465.00
2023-04-21T10:55:53.554Z,468.00
2023-04-21T10:56:48.984Z,461.00
2023-04-21T10:57:44.456Z,469.00
2023-04-21T10:58:39.831Z,470.00
2023-04-21T10:59:35.293Z,474.00
2023-04-21T11:00:30.696Z,474.00
2023-04-21T11:01:26.178Z,473.00
2023-04-21T11:02:21.695Z,470.00
2023-04-21T11:03:17.112Z,463.00
2023-04-21T11:04:12.489Z,458.00
2023-04-21T11:05:07.930Z,467.00
2023-04-21T11:06:03.120Z,466.00
2023-04-21T11:06:58.580Z,468.00
2023-04-21T11:07:54.071Z,462.00
2023-04-21T11:08:49.490Z,462.00
2023-04-21T11:09:45.000Z,457.00
2023-04-21T11:10:40.422Z,466.00
2023-04-21T11:11:35.901Z,460.00
2023-04-21T11:12:31.368Z,475.00
2023-04-21T11:13:26.739Z,478.00
2023-04-21T11:14:22.246Z,481.00
2023-04-21T11:15:17.535Z,483.00
2023-04-21T11:16:13.137Z,478.00
2023-04-21T11:17:08.678Z,480.00
2023-04-21T11:18:04.236Z,483.00
2023-04-21T11:18:59.584Z,470.00
2023-04-21T11:19:55.012Z,474.00
2023-04-21T11:20:50.379Z,466.00
2023-04-21T11:21:45.990Z,479.00
2023-04-21T11:22:41.373Z,487.00
2023-04-21T11:23:36.774Z,489.00
2023-04-21T11:24:32.206Z,484.00
2023-04-21T11:25:27.632Z,474.00
2023-04-21T11:26:23.017Z,464.00
2023-04-21T11:27:18.451Z,469.00
2023-04-21T11:28:13.803Z,467.00
2023-04-21T11:29:09.312Z,479.00
2023-04-21T11:30:04.650Z,464.00
2023-04-21T11:31:00.054Z,471.00
2023-04-21T11:31:55.386Z,470.00
2023-04-21T11:32:50.892Z,472.00
2023-04-21T11:33:46.326Z,468.00
2023-04-21T11:34:41.767Z,472.00
2023-04-21T11:35:37.225Z,473.00